Time;durP1;ratioP1;P1;durP2;ratioP2;P2;SDS_P1;SDS_P2;PMS_P1;PMS_P2;Temp;Humidity;BMP_temperature;BMP_pressure;BME280_temperature;BME280_humidity;BME280_pressure;Samples;Min_cycle;Max_cycle;Signal;HPM_P1;HPM_P2
2021/07/07 00:02:49;;;;;;;5.62;3.47;;;;;;;20.22;74.19;100515.31;1750650;81;21750;-57
2021/07/07 00:05:55;;;;;;;5.35;3.98;;;;;;;20.17;74.43;100524.06;1749316;81;21234;-56
2021/07/07 00:09:01;;;;;;;4.72;3.62;;;;;;;20.11;74.65;100520.77;1761840;80;21264;-57
2021/07/07 00:12:11;;;;;;;4.60;3.85;;;;;;;20.11;74.74;100518.85;1744183;81;21444;-55
2021/07/07 00:15:25;;;;;;;8.53;3.62;;;;;;;20.10;74.80;100522.73;1740250;82;21368;-56
2021/07/07 00:18:31;;;;;;;3.85;3.35;;;;;;;20.09;74.71;100525.74;1691919;83;21270;-56
2021/07/07 00:21:41;;;;;;;6.35;3.55;;;;;;;20.07;74.72;100529.29;1741542;82;21265;-56
2021/07/07 00:24:48;;;;;;;4.05;3.60;;;;;;;20.02;74.62;100531.39;1739898;82;21203;-57
2021/07/07 00:27:56;;;;;;;4.37;3.67;;;;;;;20.00;74.68;100534.93;1740596;81;21424;-56
2021/07/07 00:31:02;;;;;;;4.20;3.42;;;;;;;20.01;74.59;100533.02;1679102;84;21262;-56
2021/07/07 00:34:10;;;;;;;4.03;3.27;;;;;;;20.05;74.39;100531.45;1728418;83;21206;-56
2021/07/07 00:37:15;;;;;;;3.83;3.22;;;;;;;20.08;74.33;100536.53;1687699;84;21368;-57
2021/07/07 00:40:23;;;;;;;6.28;3.17;;;;;;;20.14;73.98;100535.63;1669095;85;21222;-57
2021/07/07 00:43:33;;;;;;;4.40;2.80;;;;;;;20.15;73.57;100545.12;1668735;86;21257;-57
2021/07/07 00:46:41;;;;;;;3.58;3.27;;;;;;;20.18;73.42;100546.06;1668925;86;21257;-56
2021/07/07 00:49:48;;;;;;;4.60;3.20;;;;;;;20.20;73.04;100543.05;1669682;85;21212;-56
2021/07/07 00:52:56;;;;;;;6.10;3.27;;;;;;;20.21;72.67;100544.21;1669248;86;21731;-58
2021/07/07 00:56:03;;;;;;;4.28;2.75;;;;;;;20.23;72.49;100545.36;1669037;86;21879;-59
2021/07/07 00:59:12;;;;;;;3.83;2.55;;;;;;;20.26;72.15;100553.23;1668882;86;21887;-58
2021/07/07 01:02:19;;;;;;;5.25;3.05;;;;;;;20.24;72.05;100543.73;1669055;85;21745;-59
2021/07/07 01:05:25;;;;;;;3.00;2.50;;;;;;;20.26;71.74;100551.84;1669065;85;21284;-58
2021/07/07 01:08:31;;;;;;;6.17;3.60;;;;;;;20.22;71.65;100557.55;1670401;85;21315;-55
2021/07/07 01:11:39;;;;;;;5.55;3.30;;;;;;;20.17;71.61;100554.08;1670138;85;21248;-59
2021/07/07 01:14:46;;;;;;;3.90;2.70;;;;;;;20.16;71.62;100553.79;1669269;85;21237;-57
2021/07/07 01:17:53;;;;;;;3.98;2.60;;;;;;;20.15;71.62;100560.97;1669388;85;21236;-57
2021/07/07 01:21:01;;;;;;;3.27;2.42;;;;;;;20.14;71.76;100564.28;1669040;86;21221;-56
2021/07/07 01:24:08;;;;;;;5.40;2.80;;;;;;;20.12;71.76;100565.02;1684327;83;21225;-57
2021/07/07 01:27:15;;;;;;;3.35;2.60;;;;;;;20.15;71.76;100565.97;1690822;83;21427;-56
2021/07/07 01:30:27;;;;;;;3.75;2.92;;;;;;;20.14;71.66;100563.42;1686134;83;21466;-56
2021/07/07 01:33:32;;;;;;;3.52;2.60;;;;;;;20.12;71.90;100572.53;1687028;83;21277;-56
2021/07/07 01:36:40;;;;;;;4.97;3.08;;;;;;;20.08;71.92;100578.23;1685214;83;21225;-56
2021/07/07 01:39:48;;;;;;;3.92;3.02;;;;;;;20.07;72.01;100577.94;1754011;80;21931;-56
2021/07/07 01:42:54;;;;;;;4.05;2.92;;;;;;;20.07;72.11;100577.94;1751720;81;21398;-57
2021/07/07 01:46:00;;;;;;;5.30;2.92;;;;;;;20.08;72.03;100586.56;1765279;80;21733;-57
2021/07/07 01:49:09;;;;;;;5.12;2.95;;;;;;;20.08;72.01;100581.01;1703335;84;21744;-57
2021/07/07 01:52:17;;;;;;;4.83;2.70;;;;;;;20.07;72.04;100583.49;1752777;80;21370;-59
2021/07/07 01:55:25;;;;;;;5.35;2.65;;;;;;;20.10;72.00;100589.97;1753897;81;21403;-54
2021/07/07 01:58:34;;;;;;;4.42;2.90;;;;;;;20.10;71.72;100591.36;1752375;80;22111;-55
2021/07/07 02:01:39;;;;;;;5.12;3.12;;;;;;;20.08;71.48;100594.91;1750801;80;21336;-56
2021/07/07 02:04:46;;;;;;;4.12;2.92;;;;;;;20.07;71.41;100597.39;1760459;80;21209;-56
2021/07/07 02:07:54;;;;;;;4.60;3.02;;;;;;;20.03;71.46;100598.92;1771022;80;21205;-56
2021/07/07 02:11:02;;;;;;;5.03;2.52;;;;;;;20.01;71.41;100603.32;1770757;80;21260;-56
2021/07/07 02:14:08;;;;;;;5.60;2.85;;;;;;;20.00;71.28;100611.89;1770935;80;21233;-55
2021/07/07 02:17:13;;;;;;;5.67;3.30;;;;;;;20.02;71.29;100602.79;1771278;80;21817;-54
2021/07/07 02:20:22;;;;;;;4.45;2.67;;;;;;;20.07;71.04;100605.73;1771886;80;21272;-54
2021/07/07 02:23:29;;;;;;;3.50;2.70;;;;;;;20.03;70.65;100605.34;1771569;81;21331;-56
2021/07/07 02:26:36;;;;;;;4.15;2.55;;;;;;;19.96;70.63;100607.89;1771858;80;21347;-55
2021/07/07 02:29:42;;;;;;;4.00;2.83;;;;;;;19.87;70.76;100602.34;1771196;80;21358;-54
2021/07/07 02:32:48;;;;;;;5.60;2.80;;;;;;;19.86;70.75;100608.95;1771170;80;21336;-55
2021/07/07 02:35:55;;;;;;;4.90;2.55;;;;;;;19.83;70.85;100611.67;1771601;80;21383;-55
2021/07/07 02:39:02;;;;;;;4.67;2.98;;;;;;;19.86;70.92;100611.73;1763742;81;21343;-55
2021/07/07 02:42:08;;;;;;;5.10;2.65;;;;;;;19.93;70.76;100616.70;1771191;81;21567;-54
2021/07/07 02:45:17;;;;;;;5.17;2.77;;;;;;;19.94;70.37;100615.60;1771383;80;21922;-55
2021/07/07 02:48:23;;;;;;;6.72;3.22;;;;;;;19.95;70.50;100615.90;1771433;80;21415;-56
2021/07/07 02:51:30;;;;;;;3.70;3.10;;;;;;;20.00;70.61;100614.67;1771312;81;21240;-56
2021/07/07 02:54:40;;;;;;;5.08;3.30;;;;;;;20.00;70.49;100611.36;1771362;81;21331;-55
2021/07/07 02:58:02;;;;;;;6.75;3.17;;;;;;;20.01;70.62;100616.39;1771099;81;21249;-56
2021/07/07 03:01:05;;;;;;;6.28;3.25;;;;;;;20.01;70.75;100618.61;1771292;81;21879;-56
2021/07/07 03:04:12;;;;;;;6.08;3.05;;;;;;;20.02;70.68;100625.89;1771212;81;21769;-57
2021/07/07 03:07:19;;;;;;;5.78;3.47;;;;;;;20.03;70.94;100627.57;1771121;81;21208;-57
2021/07/07 03:10:27;;;;;;;8.33;3.47;;;;;;;20.08;70.94;100631.91;1771756;79;21201;-58
2021/07/07 03:13:34;;;;;;;5.58;3.60;;;;;;;20.08;70.73;100633.82;1771412;80;21177;-58
2021/07/07 03:16:42;;;;;;;4.50;2.98;;;;;;;20.06;70.87;100634.05;1771819;80;21374;-57
2021/07/07 03:19:48;;;;;;;7.20;4.37;;;;;;;20.07;70.68;100637.16;1758020;80;21440;-59
2021/07/07 03:22:54;;;;;;;4.08;3.22;;;;;;;20.05;70.78;100641.23;1771200;81;21326;-58
2021/07/07 03:26:00;;;;;;;8.18;3.37;;;;;;;20.07;70.82;100646.89;1771555;80;21322;-58
2021/07/07 03:29:12;;;;;;;6.73;3.70;;;;;;;20.10;70.72;100645.56;1772237;80;21243;-57
2021/07/07 03:32:18;;;;;;;6.28;3.30;;;;;;;20.06;70.55;100651.30;1770070;80;21269;-57
2021/07/07 03:35:24;;;;;;;8.68;3.60;;;;;;;20.05;70.62;100644.02;1771812;81;21416;-59
2021/07/07 03:38:30;;;;;;;9.43;3.92;;;;;;;20.03;70.62;100648.95;1771517;81;21759;-59
2021/07/07 03:41:39;;;;;;;6.87;3.60;;;;;;;20.03;70.85;100651.73;1771536;81;21325;-59
2021/07/07 03:44:46;;;;;;;6.60;3.75;;;;;;;20.08;70.95;100654.14;1771384;81;21334;-57
2021/07/07 03:47:52;;;;;;;7.97;4.12;;;;;;;20.09;71.28;100654.44;1771372;81;21211;-58
2021/07/07 03:50:58;;;;;;;6.95;4.00;;;;;;;20.18;72.02;100660.59;1772110;80;21325;-59
2021/07/07 03:54:05;;;;;;;7.53;3.62;;;;;;;20.29;72.70;100663.98;1771824;80;21372;-59
2021/07/07 03:57:12;;;;;;;7.40;3.60;;;;;;;20.40;72.77;100657.11;1771575;80;21195;-59
2021/07/07 04:00:27;;;;;;;5.47;3.35;;;;;;;20.42;72.28;100660.48;1771153;81;21345;-57
2021/07/07 04:03:34;;;;;;;7.12;3.92;;;;;;;20.45;72.05;100653.09;1770956;81;21384;-61
2021/07/07 04:06:42;;;;;;;8.25;4.33;;;;;;;20.47;71.82;100646.73;1771103;80;21831;-58
2021/07/07 04:09:49;;;;;;;5.67;3.70;;;;;;;20.47;71.80;100649.52;1771363;80;21329;-58
2021/07/07 04:12:55;;;;;;;9.05;5.25;;;;;;;20.54;72.13;100651.69;1771165;80;21333;-58
2021/07/07 04:16:01;;;;;;;9.80;5.42;;;;;;;20.65;71.69;100654.20;1771109;80;21408;-59
2021/07/07 04:19:09;;;;;;;11.00;6.22;;;;;;;20.73;71.29;100655.27;1771611;80;21242;-58
2021/07/07 04:22:17;;;;;;;10.40;5.72;;;;;;;20.82;70.75;100658.02;1770592;81;21194;-58
2021/07/07 04:25:24;;;;;;;6.35;4.50;;;;;;;20.92;70.62;100659.71;1771321;80;21873;-58
2021/07/07 04:28:31;;;;;;;7.55;4.33;;;;;;;21.05;70.45;100653.98;1771137;80;21337;-59
2021/07/07 04:31:39;;;;;;;7.28;3.60;;;;;;;21.13;69.93;100658.36;1771326;81;21337;-59
2021/07/07 04:34:46;;;;;;;7.65;4.17;;;;;;;21.22;69.86;100659.70;1771341;80;21603;-58
2021/07/07 04:37:54;;;;;;;7.62;4.42;;;;;;;21.30;69.47;100655.19;1771010;80;21305;-59
2021/07/07 04:41:02;;;;;;;7.00;4.10;;;;;;;21.35;68.48;100658.97;1771234;80;21369;-58
2021/07/07 04:44:11;;;;;;;6.55;4.47;;;;;;;21.32;67.70;100656.67;1771486;80;21838;-59
2021/07/07 04:47:21;;;;;;;6.22;4.25;;;;;;;21.33;67.42;100662.53;1770968;81;21254;-60
2021/07/07 04:50:27;;;;;;;7.35;3.62;;;;;;;21.39;67.27;100663.52;1771715;80;21428;-58
2021/07/07 04:53:34;;;;;;;5.28;3.83;;;;;;;21.46;67.49;100664.25;1771211;81;21324;-60
2021/07/07 04:56:46;;;;;;;5.30;3.85;;;;;;;21.57;67.72;100665.66;1770834;81;22300;-60
2021/07/07 04:59:56;;;;;;;6.72;3.45;;;;;;;21.62;66.19;100667.19;1771392;81;21357;-59
2021/07/07 05:03:02;;;;;;;8.55;3.70;;;;;;;21.57;66.24;100674.02;1771092;81;21396;-59
2021/07/07 05:06:10;;;;;;;5.10;3.58;;;;;;;21.61;66.04;100686.38;1770178;80;21394;-58
2021/07/07 05:09:18;;;;;;;9.90;3.30;;;;;;;21.61;65.76;100689.16;1769843;81;21367;-57
2021/07/07 05:12:23;;;;;;;11.10;4.20;;;;;;;21.60;65.22;100687.47;1770466;80;21268;-60
2021/07/07 05:15:30;;;;;;;8.65;3.90;;;;;;;21.60;65.25;100689.40;1770499;80;21228;-60
2021/07/07 05:18:38;;;;;;;5.03;3.40;;;;;;;21.67;64.89;100691.02;1749158;80;21894;-59
2021/07/07 05:21:45;;;;;;;9.80;3.42;;;;;;;21.72;64.20;100699.47;1682192;84;21412;-59
2021/07/07 05:24:54;;;;;;;4.47;3.12;;;;;;;21.76;64.15;100699.34;1733336;82;21366;-58
2021/07/07 05:28:05;;;;;;;7.60;3.80;;;;;;;21.84;63.85;100704.56;1704156;84;21346;-57
2021/07/07 05:31:24;;;;;;;6.05;3.45;;;;;;;21.87;63.07;100697.11;1703710;84;21255;-58
2021/07/07 05:34:30;;;;;;;6.87;3.35;;;;;;;21.94;62.65;100702.03;1722436;80;21272;-58
2021/07/07 05:37:40;;;;;;;7.33;3.25;;;;;;;22.02;62.40;100700.25;1757004;80;21197;-56
2021/07/07 05:40:51;;;;;;;8.35;3.50;;;;;;;22.11;62.23;100698.81;1740143;82;21883;-60
2021/07/07 05:43:58;;;;;;;5.12;3.02;;;;;;;22.14;62.55;100703.04;1740387;82;22196;-59
2021/07/07 05:47:05;;;;;;;6.30;3.60;;;;;;;22.18;61.94;100698.13;1739982;82;21899;-58
2021/07/07 05:50:13;;;;;;;9.15;3.40;;;;;;;22.25;61.67;100700.78;1740031;82;21378;-58
2021/07/07 05:53:26;;;;;;;9.15;3.65;;;;;;;22.35;61.75;100707.14;1748133;81;21387;-57
2021/07/07 05:56:39;;;;;;;7.72;3.65;;;;;;;22.44;61.61;100700.95;1748463;80;21368;-58
2021/07/07 05:59:47;;;;;;;7.80;3.60;;;;;;;22.56;61.78;100710.73;1680027;84;21247;-57
2021/07/07 06:03:13;;;;;;;10.32;4.20;;;;;;;22.72;61.07;100715.55;1756453;79;21418;-58
2021/07/07 06:06:32;;;;;;;7.03;3.72;;;;;;;22.86;60.81;100716.42;1757852;80;21778;-59
2021/07/07 06:09:39;;;;;;;13.53;3.72;;;;;;;22.98;60.90;100709.38;1768363;79;21225;-58
2021/07/07 06:12:55;;;;;;;5.97;3.92;;;;;;;23.17;60.21;100714.53;1755321;81;21291;-58
2021/07/07 06:16:12;;;;;;;6.90;3.67;;;;;;;23.38;59.61;100714.39;1765597;80;21220;-58
2021/07/07 06:19:31;;;;;;;6.67;3.52;;;;;;;23.54;59.56;100710.78;1731888;82;21240;-59
2021/07/07 06:22:56;;;;;;;7.75;3.90;;;;;;;23.78;59.04;100719.32;1839783;76;22261;-58
2021/07/07 06:26:32;;;;;;;7.25;3.40;;;;;;;23.87;59.57;100714.98;1763267;79;21237;-58
2021/07/07 06:29:59;;;;;;;11.15;4.10;;;;;;;24.22;58.63;100710.53;1744605;80;21546;-58
2021/07/07 06:33:21;;;;;;;5.53;3.20;;;;;;;24.42;57.84;100714.47;1755642;79;21184;-60
2021/07/07 06:37:18;;;;;;;10.10;3.35;;;;;;;24.59;56.81;100714.44;1785031;79;21612;-57
2021/07/07 06:40:56;;;;;;;4.90;3.20;;;;;;;24.67;55.59;100719.05;1763969;79;21558;-58
2021/07/07 06:44:22;;;;;;;8.00;3.40;;;;;;;24.65;55.84;100714.25;1762696;80;22094;-57
2021/07/07 06:47:39;;;;;;;7.42;3.17;;;;;;;24.64;55.71;100715.92;1763365;80;21185;-58
2021/07/07 06:50:56;;;;;;;11.65;3.52;;;;;;;24.62;55.78;100713.38;1756556;79;21283;-57
2021/07/07 06:54:21;;;;;;;8.13;3.52;;;;;;;24.58;55.43;100712.73;1768255;80;21248;-58
2021/07/07 06:57:36;;;;;;;7.22;3.12;;;;;;;24.56;55.64;100718.59;1748295;80;21204;-57
2021/07/07 07:00:59;;;;;;;6.12;3.00;;;;;;;24.62;55.53;100719.52;1756631;79;21556;-58
2021/07/07 07:04:11;;;;;;;8.70;3.30;;;;;;;24.67;55.29;100710.66;1716395;82;21742;-57
2021/07/07 07:07:34;;;;;;;7.53;2.80;;;;;;;24.76;55.55;100709.11;1705410;83;21249;-56
2021/07/07 07:10:45;;;;;;;9.88;3.70;;;;;;;24.80;55.18;100712.24;1733024;81;21232;-58
2021/07/07 07:14:02;;;;;;;5.67;3.05;;;;;;;24.81;55.25;100714.78;1740000;81;21271;-59
2021/07/07 07:17:12;;;;;;;12.53;3.50;;;;;;;24.85;55.31;100714.54;1739930;81;21261;-57
2021/07/07 07:20:27;;;;;;;8.10;2.98;;;;;;;24.89;53.88;100717.09;1733540;79;21716;-57
2021/07/07 07:23:32;;;;;;;10.15;3.80;;;;;;;24.94;53.89;100717.73;1771646;79;21472;-57
2021/07/07 07:26:43;;;;;;;14.10;4.53;;;;;;;24.98;54.21;100721.15;1773719;79;21706;-58
2021/07/07 07:29:49;;;;;;;11.10;3.47;;;;;;;25.05;54.73;100724.58;1775937;79;21204;-60
2021/07/07 07:32:55;;;;;;;11.78;3.65;;;;;;;25.16;54.69;100714.36;1768701;80;21308;-57
2021/07/07 07:36:02;;;;;;;10.63;3.65;;;;;;;25.31;55.12;100719.28;1767889;79;21263;-58
2021/07/07 07:39:08;;;;;;;12.90;3.12;;;;;;;25.44;55.37;100720.27;1767668;80;21551;-57
2021/07/07 07:42:23;;;;;;;7.30;3.37;;;;;;;25.56;53.36;100727.98;1766917;81;21292;-57
2021/07/07 07:45:28;;;;;;;;;;;;;;;25.65;53.46;100725.84;1749355;81;21358;-58
2021/07/07 07:48:33;;;;;;;10.58;3.00;;;;;;;25.74;53.76;100713.55;1741734;82;20346;-58
2021/07/07 07:51:40;;;;;;;11.28;3.55;;;;;;;25.78;53.12;100716.95;1759982;81;21173;-59
2021/07/07 07:54:47;;;;;;;11.83;3.47;;;;;;;25.77;52.50;100714.42;1750603;81;21188;-58
2021/07/07 07:57:58;;;;;;;7.37;2.67;;;;;;;25.77;52.19;100720.03;1731295;82;21282;-58
2021/07/07 08:01:06;;;;;;;15.85;3.05;;;;;;;25.83;51.69;100724.59;1740206;81;21264;-58
2021/07/07 08:04:17;;;;;;;8.00;2.72;;;;;;;25.91;51.36;100738.96;1740823;82;21750;-57
2021/07/07 08:07:27;;;;;;;6.83;2.72;;;;;;;25.96;50.77;100743.77;1762637;80;21379;-58
2021/07/07 08:10:34;;;;;;;8.58;3.22;;;;;;;26.00;50.93;100744.97;1767238;79;21367;-58
2021/07/07 08:13:41;;;;;;;10.80;3.90;;;;;;;26.09;51.62;100750.36;1763730;81;21315;-57
2021/07/07 08:16:50;;;;;;;8.50;2.65;;;;;;;26.19;52.17;100753.27;1740811;81;21322;-57
2021/07/07 08:19:56;;;;;;;5.75;2.70;;;;;;;26.21;52.07;100756.08;1770913;79;21347;-57
2021/07/07 08:23:02;;;;;;;8.68;3.20;;;;;;;26.33;52.07;100758.15;1763447;80;21205;-59
2021/07/07 08:26:11;;;;;;;23.10;4.83;;;;;;;26.55;51.03;100764.17;1740955;81;21374;-59
2021/07/07 08:29:16;;;;;;;5.28;3.08;;;;;;;26.71;50.21;100761.77;1739776;82;21201;-58
2021/07/07 08:32:23;;;;;;;15.90;4.22;;;;;;;26.75;49.29;100769.96;1770459;81;21291;-57
2021/07/07 08:35:37;;;;;;;12.75;3.33;;;;;;;26.75;49.61;100773.59;1739964;81;21796;-58
2021/07/07 08:38:42;;;;;;;7.60;3.27;;;;;;;26.76;49.21;100774.45;1762031;81;21348;-56
2021/07/07 08:41:51;;;;;;;9.98;3.45;;;;;;;26.76;49.18;100775.86;1765942;79;21209;-57
2021/07/07 08:44:58;;;;;;;6.55;2.70;;;;;;;26.81;50.18;100775.34;1737319;82;21220;-55
2021/07/07 08:48:05;;;;;;;8.33;3.33;;;;;;;26.86;49.21;100778.73;1764481;81;21859;-55
2021/07/07 08:51:14;;;;;;;8.05;2.92;;;;;;;26.72;49.67;100775.55;1764284;79;21347;-57
2021/07/07 08:54:20;;;;;;;5.47;2.98;;;;;;;26.76;50.35;100779.52;1735328;81;21227;-56
2021/07/07 08:57:29;;;;;;;6.35;2.62;;;;;;;26.90;50.07;100786.34;1761437;81;21363;-56
2021/07/07 09:00:44;;;;;;;7.15;3.20;;;;;;;26.98;49.75;100780.75;1769464;80;21434;-55
2021/07/07 09:03:55;;;;;;;7.92;3.33;;;;;;;27.05;49.89;100783.58;1767991;81;21256;-56
2021/07/07 09:07:22;;;;;;;6.45;3.47;;;;;;;27.04;50.58;100792.30;1768424;80;21205;-55
2021/07/07 09:10:47;;;;;;;9.08;3.15;;;;;;;27.05;49.59;100780.77;1758498;81;21206;-56
2021/07/07 09:14:18;;;;;;;5.95;3.25;;;;;;;27.02;49.17;100799.59;1767495;80;21206;-56
2021/07/07 09:17:27;;;;;;;3.62;2.70;;;;;;;27.11;48.33;100792.91;1768602;81;21418;-58
2021/07/07 09:20:39;;;;;;;7.28;3.08;;;;;;;27.24;47.92;100790.41;1769064;80;21733;-60
2021/07/07 09:23:52;;;;;;;4.60;2.65;;;;;;;27.33;48.57;100791.62;1770648;80;21188;-58
2021/07/07 09:27:09;;;;;;;6.75;2.62;;;;;;;27.49;49.01;100792.52;1769372;80;21240;-58
2021/07/07 09:30:19;;;;;;;5.83;2.77;;;;;;;27.63;47.57;100786.09;1772109;79;21193;-57
2021/07/07 09:33:28;;;;;;;5.95;2.60;;;;;;;27.73;46.83;100791.72;1763458;80;21275;-58
2021/07/07 09:36:35;;;;;;;9.15;2.60;;;;;;;27.81;47.12;100793.98;1770229;79;22275;-57
2021/07/07 09:39:41;;;;;;;6.08;2.35;;;;;;;27.96;47.33;100790.94;1770151;79;21207;-56
2021/07/07 09:42:48;;;;;;;6.70;2.27;;;;;;;28.12;46.15;100792.64;1770498;81;21856;-56
2021/07/07 09:45:54;;;;;;;7.15;2.47;;;;;;;28.29;45.79;100790.41;1770519;79;21331;-56
2021/07/07 09:49:01;;;;;;;3.70;2.00;;;;;;;28.48;43.19;100792.96;1770752;80;21308;-56
2021/07/07 09:52:08;;;;;;;4.33;2.12;;;;;;;28.52;43.13;100789.29;1751961;81;21201;-57
2021/07/07 09:55:13;;;;;;;6.37;2.20;;;;;;;28.64;42.87;100796.86;1768928;80;21790;-56
2021/07/07 09:58:18;;;;;;;6.17;2.20;;;;;;;28.58;41.67;100802.23;1769647;81;21189;-56
2021/07/07 10:01:25;;;;;;;8.35;2.60;;;;;;;28.54;41.64;100800.27;1770080;81;21204;-57
2021/07/07 10:04:33;;;;;;;3.85;2.20;;;;;;;28.66;42.46;100797.44;1768311;81;21166;-59
2021/07/07 10:07:38;;;;;;;6.35;2.37;;;;;;;28.85;43.28;100804.16;1740015;82;21247;-58
2021/07/07 10:10:48;;;;;;;6.75;2.40;;;;;;;29.04;42.92;100805.78;1745438;81;21721;-58
2021/07/07 10:14:00;;;;;;;8.33;2.98;;;;;;;29.03;41.88;100801.28;1728136;80;21600;-56
2021/07/07 10:17:07;;;;;;;5.90;2.15;;;;;;;28.87;42.37;100808.09;1759484;81;21197;-56
2021/07/07 10:20:17;;;;;;;2.12;1.40;;;;;;;28.85;42.14;100811.75;1770044;79;21230;-57
2021/07/07 10:23:23;;;;;;;6.95;2.15;;;;;;;28.89;40.55;100803.02;1770360;80;21185;-56
2021/07/07 10:26:30;;;;;;;6.00;1.90;;;;;;;28.84;39.83;100809.49;1764198;80;21221;-57
2021/07/07 10:29:36;;;;;;;4.65;1.80;;;;;;;28.84;40.46;100815.12;1767666;81;21200;-55
2021/07/07 10:32:42;;;;;;;4.62;1.90;;;;;;;28.99;40.01;100795.92;1761336;81;21371;-56
2021/07/07 10:35:49;;;;;;;5.35;1.90;;;;;;;29.11;40.81;100811.42;1768444;81;21249;-58
2021/07/07 10:39:09;;;;;;;11.57;2.08;;;;;;;29.11;39.92;100804.38;1768470;80;21363;-56
2021/07/07 10:42:21;;;;;;;4.90;1.90;;;;;;;29.20;40.09;100811.69;1751336;81;21730;-56
2021/07/07 10:45:54;;;;;;;3.50;1.72;;;;;;;29.35;38.61;100801.76;1763608;81;21228;-55
2021/07/07 10:49:27;;;;;;;8.55;1.95;;;;;;;29.38;38.61;100798.36;1738226;81;21249;-57
2021/07/07 10:52:46;;;;;;;2.95;1.90;;;;;;;29.41;38.99;100806.80;1739043;82;21663;-59
2021/07/07 10:55:55;;;;;;;6.10;2.22;;;;;;;29.58;39.01;100806.70;1739717;81;21348;-55
2021/07/07 10:59:00;;;;;;;3.75;2.00;;;;;;;29.83;38.44;100808.55;1739837;82;21243;-57
2021/07/07 11:02:14;;;;;;;3.72;1.60;;;;;;;29.97;37.43;100794.89;1751859;80;21201;-57
2021/07/07 11:05:32;;;;;;;11.18;2.00;;;;;;;30.12;38.23;100808.92;1745971;80;21351;-56
2021/07/07 11:08:39;;;;;;;6.40;1.62;;;;;;;30.28;37.93;100809.67;1740265;82;22057;-55
2021/07/07 11:11:47;;;;;;;7.58;2.00;;;;;;;30.33;37.40;100810.48;1733912;81;21296;-55
2021/07/07 11:15:09;;;;;;;5.95;2.10;;;;;;;30.38;36.84;100811.00;1740434;81;21244;-58
2021/07/07 11:18:26;;;;;;;13.47;2.20;;;;;;;30.52;37.78;100797.27;1765220;81;21268;-57
2021/07/07 11:21:39;;;;;;;6.55;2.05;;;;;;;30.52;37.78;100797.27;1770011;80;21229;-57
2021/07/07 11:24:58;;;;;;;5.50;1.62;;;;;;;30.70;38.03;100793.45;1762333;80;21244;-57
2021/07/07 11:28:16;;;;;;;3.42;1.65;;;;;;;30.88;37.19;100803.45;1754653;79;21386;-58
2021/07/07 11:31:26;;;;;;;5.12;1.90;;;;;;;31.05;37.48;100795.33;1741039;81;21575;-57
2021/07/07 11:34:29;;;;;;;5.97;2.52;;;;;;;31.21;38.54;100791.73;1758806;80;21348;-57
2021/07/07 11:37:41;;;;;;;11.18;2.22;;;;;;;31.21;38.54;100791.73;1753058;80;21248;-57
2021/07/07 11:40:57;;;;;;;7.00;2.20;;;;;;;31.34;37.99;100804.62;1688590;83;21250;-58
2021/07/07 11:44:11;;;;;;;5.20;2.10;;;;;;;31.11;38.88;100804.61;1676019;84;21294;-56
2021/07/07 11:47:20;;;;;;;7.40;2.10;;;;;;;30.88;38.27;100806.84;1729755;83;21335;-58
2021/07/07 11:50:29;;;;;;;5.90;1.70;;;;;;;30.64;38.31;100810.46;1709296;83;21426;-57
2021/07/07 11:53:54;;;;;;;3.30;1.90;;;;;;;30.64;38.92;100814.70;1712406;83;21199;-57
2021/07/07 11:57:08;;;;;;;10.68;2.02;;;;;;;30.80;39.97;100806.08;1770546;80;21237;-56
2021/07/07 12:00:19;;;;;;;4.78;2.37;;;;;;;31.10;39.91;100802.91;1763066;80;21249;-55
2021/07/07 12:03:40;;;;;;;7.28;1.92;;;;;;;31.30;38.81;100806.92;1759925;81;21303;-56
2021/07/07 12:06:52;;;;;;;4.78;1.90;;;;;;;31.04;38.36;100811.19;1770430;80;21216;-55
2021/07/07 12:10:03;;;;;;;4.67;2.12;;;;;;;31.03;39.08;100808.09;1769783;81;21224;-56
2021/07/07 12:13:36;;;;;;;4.58;1.85;;;;;;;31.18;39.12;100801.68;1770579;80;21343;-56
2021/07/07 12:16:48;;;;;;;6.10;1.95;;;;;;;31.26;38.82;100810.92;1767328;80;21239;-57
2021/07/07 12:19:56;;;;;;;6.00;2.35;;;;;;;31.29;38.06;100806.63;1759256;79;21379;-56
2021/07/07 12:23:15;;;;;;;4.78;2.33;;;;;;;31.22;38.59;100814.66;1748037;80;21209;-56
2021/07/07 12:26:25;;;;;;;10.15;2.62;;;;;;;31.22;38.34;100806.17;1763600;79;21547;-57
2021/07/07 12:29:39;;;;;;;8.45;2.75;;;;;;;31.22;39.44;100804.76;1761537;81;21208;-55
2021/07/07 12:32:55;;;;;;;6.25;2.25;;;;;;;31.08;39.02;100820.18;1856490;76;22247;-55
2021/07/07 12:36:08;;;;;;;8.53;2.95;;;;;;;30.93;39.59;100825.17;1793752;78;21390;-56
2021/07/07 12:39:27;;;;;;;6.20;2.42;;;;;;;30.95;40.30;100820.07;1770251;80;21737;-59
2021/07/07 12:42:50;;;;;;;7.40;2.62;;;;;;;31.12;40.59;100819.02;1758626;80;21801;-57
2021/07/07 12:45:55;;;;;;;7.08;2.52;;;;;;;31.32;40.17;100813.98;1756162;81;21731;-57
2021/07/07 12:49:04;;;;;;;6.17;3.02;;;;;;;31.44;39.68;100813.56;1771420;80;21881;-57
2021/07/07 12:52:36;;;;;;;9.00;3.15;;;;;;;31.34;39.79;100813.68;1772396;81;21355;-56
2021/07/07 12:55:44;;;;;;;9.58;3.05;;;;;;;31.02;39.92;100815.73;1739424;81;21712;-56
2021/07/07 12:59:19;;;;;;;9.40;3.25;;;;;;;30.81;40.56;100818.50;1747160;81;21710;-56
2021/07/07 13:02:28;;;;;;;11.30;3.05;;;;;;;30.83;40.97;100818.23;1771764;80;21864;-57
2021/07/07 13:05:56;;;;;;;8.15;2.60;;;;;;;30.98;41.38;100818.91;1771407;79;21348;-57
2021/07/07 13:09:11;;;;;;;13.13;3.30;;;;;;;31.03;41.88;100827.34;1771089;81;21879;-56
2021/07/07 13:12:18;;;;;;;8.60;3.42;;;;;;;30.91;41.03;100826.03;1771169;81;21687;-56
2021/07/07 13:15:26;;;;;;;4.62;3.37;;;;;;;30.74;41.33;100825.62;1770966;79;21320;-56
2021/07/07 13:18:31;;;;;;;10.40;3.22;;;;;;;30.71;41.62;100818.59;1770626;81;21757;-57
2021/07/07 13:21:56;;;;;;;10.50;3.40;;;;;;;30.72;41.39;100823.66;1772092;79;21406;-57
2021/07/07 13:25:02;;;;;;;8.73;2.92;;;;;;;30.62;41.99;100826.87;1772721;80;21413;-57
2021/07/07 13:28:21;;;;;;;8.55;3.30;;;;;;;30.53;42.65;100830.08;1772807;80;21229;-55
2021/07/07 13:31:38;;;;;;;9.80;3.50;;;;;;;30.55;43.42;100824.97;1768345;79;21236;-56
2021/07/07 13:35:12;;;;;;;9.20;3.70;;;;;;;30.50;42.26;100828.41;1724737;83;21411;-58
2021/07/07 13:38:34;;;;;;;6.97;3.92;;;;;;;30.33;42.53;100833.09;1704033;84;21224;-57
2021/07/07 13:42:04;;;;;;;4.60;3.45;;;;;;;30.35;43.34;100835.62;1771571;81;21201;-56
2021/07/07 13:45:12;;;;;;;6.85;3.65;;;;;;;30.47;43.02;100840.30;1763410;80;21181;-57
2021/07/07 13:48:22;;;;;;;10.90;4.20;;;;;;;30.55;41.94;100841.94;1763020;80;21335;-57
2021/07/07 13:51:33;;;;;;;9.08;3.65;;;;;;;30.40;42.26;100839.78;1782227;80;21760;-56
2021/07/07 13:54:40;;;;;;;9.90;3.65;;;;;;;30.18;42.94;100843.05;1772158;80;21350;-58
2021/07/07 13:57:49;;;;;;;11.20;3.72;;;;;;;30.10;43.24;100842.81;1771718;80;21192;-59
2021/07/07 14:00:54;;;;;;;9.13;3.20;;;;;;;30.13;43.82;100840.25;1781874;80;21255;-59
2021/07/07 14:04:02;;;;;;;8.30;3.33;;;;;;;30.23;43.53;100848.70;1770138;80;21386;-57
2021/07/07 14:07:09;;;;;;;8.25;3.20;;;;;;;30.38;43.76;100851.38;1776031;80;21691;-58
2021/07/07 14:10:15;;;;;;;6.90;3.72;;;;;;;30.38;43.76;100851.38;1762948;79;21213;-58
2021/07/07 14:13:24;;;;;;;14.05;3.87;;;;;;;30.50;43.18;100841.98;1741965;80;21213;-58
2021/07/07 14:16:31;;;;;;;12.00;3.52;;;;;;;30.77;43.41;100847.68;1771818;79;21594;-59
2021/07/07 14:19:39;;;;;;;8.70;4.20;;;;;;;30.77;43.41;100847.68;1782063;80;21181;-58
2021/07/07 14:22:45;;;;;;;8.80;4.33;;;;;;;30.94;43.40;100847.50;1772726;80;21398;-57
2021/07/07 14:25:52;;;;;;;14.68;4.40;;;;;;;31.07;41.79;100844.53;1772474;79;21256;-57
2021/07/07 14:29:00;;;;;;;9.00;3.65;;;;;;;31.04;41.71;100849.38;1772326;80;21374;-56
2021/07/07 14:32:07;;;;;;;9.15;4.67;;;;;;;30.96;41.98;100850.88;1772929;80;21316;-57
2021/07/07 14:35:15;;;;;;;11.60;4.03;;;;;;;30.86;41.93;100851.57;1731191;81;21375;-57
2021/07/07 14:38:22;;;;;;;6.28;3.75;;;;;;;30.87;42.77;100854.66;1713709;83;21237;-58
2021/07/07 14:41:34;;;;;;;10.38;4.45;;;;;;;30.99;42.88;100840.94;1729203;82;21443;-57
2021/07/07 14:44:40;;;;;;;8.85;4.50;;;;;;;31.13;42.72;100847.60;1729389;83;21916;-57
2021/07/07 14:47:46;;;;;;;6.15;3.83;;;;;;;31.23;41.82;100845.48;1728980;83;21344;-57